Time;durP1;ratioP1;P1;durP2;ratioP2;P2;SDS_P1;SDS_P2;PMS_P1;PMS_P2;Temp;Humidity;BMP_temperature;BMP_pressure;BME280_temperature;BME280_humidity;BME280_pressure;Samples;Min_cycle;Max_cycle;Signal;HPM_P1;HPM_P2
2023/01/28 00:01:28;;;;;;;;;;;3.20;99.90;;;;;;5033643;28;19913;-67
2023/01/28 00:03:53;;;;;;;;;;;3.20;99.90;;;;;;5042124;28;20396;-68
2023/01/28 00:06:19;;;;;;;;;;;3.20;99.90;;;;;;5053668;28;19932;-67
2023/01/28 00:08:44;;;;;;;;;;;3.20;99.90;;;;;;5053741;28;19916;-67
2023/01/28 00:11:10;;;;;;;;;;;3.20;99.90;;;;;;5053611;28;19908;-68
2023/01/28 00:13:36;;;;;;;;;;;3.20;99.90;;;;;;5053401;28;19909;-67
2023/01/28 00:16:03;;;;;;;;;;;3.20;99.90;;;;;;5052227;28;19983;-68
2023/01/28 00:18:29;;;;;;;;;;;3.20;99.90;;;;;;5053429;28;19909;-68
2023/01/28 00:20:58;;;;;;;;;;;3.10;99.90;;;;;;5051715;28;19919;-68
2023/01/28 00:23:24;;;;;;;;;;;3.10;99.90;;;;;;5051782;28;19962;-68
2023/01/28 00:25:50;;;;;;;;;;;3.20;99.90;;;;;;5053242;28;19913;-67
2023/01/28 00:28:15;;;;;;;;;;;3.10;99.90;;;;;;5053273;28;19909;-67
2023/01/28 00:30:40;;;;;;;;;;;3.00;99.90;;;;;;5051724;28;20385;-67
2023/01/28 00:33:06;;;;;;;;;;;3.00;99.90;;;;;;5050203;28;20358;-67
2023/01/28 00:35:31;;;;;;;;;;;3.00;99.90;;;;;;5031903;28;20310;-67
2023/01/28 00:37:57;;;;;;;;;;;3.10;99.90;;;;;;5050841;28;19909;-68
2023/01/28 00:40:22;;;;;;;;;;;3.10;99.90;;;;;;5036952;28;19917;-69
2023/01/28 00:42:48;;;;;;;;;;;3.10;99.90;;;;;;5036751;28;19913;-68
2023/01/28 00:45:13;;;;;;;;;;;3.10;99.90;;;;;;5036971;28;19913;-68
2023/01/28 00:47:38;;;;;;;;;;;3.10;99.90;;;;;;5052019;28;19909;-67
2023/01/28 00:50:04;;;;;;;;;;;3.10;99.90;;;;;;5037224;28;19916;-67
2023/01/28 00:52:30;;;;;;;;;;;3.10;99.90;;;;;;5036836;28;20374;-67
2023/01/28 00:54:56;;;;;;;;;;;3.10;99.90;;;;;;5043249;28;19909;-68
2023/01/28 00:57:21;;;;;;;;;;;3.10;99.90;;;;;;5049402;28;19909;-68
2023/01/28 00:59:47;;;;;;;;;;;3.10;99.90;;;;;;5041722;28;19916;-67
2023/01/28 01:02:12;;;;;;;;;;;3.10;99.90;;;;;;5040106;28;20084;-67
2023/01/28 01:04:38;;;;;;;;;;;3.20;99.90;;;;;;5038088;28;20278;-66
2023/01/28 01:07:04;;;;;;;;;;;3.10;99.90;;;;;;5043912;28;19962;-68
2023/01/28 01:09:30;;;;;;;;;;;3.10;99.90;;;;;;5058999;28;19913;-67
2023/01/28 01:11:55;;;;;;;;;;;3.10;99.90;;;;;;5057744;28;19971;-68
2023/01/28 01:14:21;;;;;;;;;;;3.10;99.90;;;;;;5058407;28;19915;-66
2023/01/28 01:16:46;;;;;;;;;;;3.10;99.90;;;;;;5059395;28;19963;-67
2023/01/28 01:19:12;;;;;;;;;;;3.10;99.90;;;;;;5059610;28;19968;-67
2023/01/28 01:21:37;;;;;;;;;;;3.20;99.90;;;;;;5058162;28;19912;-68
2023/01/28 01:24:03;;;;;;;;;;;3.20;99.90;;;;;;5037933;28;19932;-67
2023/01/28 01:26:28;;;;;;;;;;;3.20;99.90;;;;;;5041484;28;19910;-67
2023/01/28 01:28:54;;;;;;;;;;;3.20;99.90;;;;;;5045256;28;19919;-67
2023/01/28 01:31:20;;;;;;;;;;;3.20;99.90;;;;;;5042682;28;20333;-67
2023/01/28 01:33:47;;;;;;;;;;;3.20;99.90;;;;;;5039840;28;20350;-67
2023/01/28 01:36:13;;;;;;;;;;;3.20;99.90;;;;;;5037487;28;20380;-68
2023/01/28 01:38:39;;;;;;;;;;;3.20;99.90;;;;;;5055834;28;19986;-67
2023/01/28 01:41:05;;;;;;;;;;;3.20;99.90;;;;;;5056026;28;19917;-68
2023/01/28 01:43:50;;;;;;;;;;;3.10;99.90;;;;;;5056938;28;19963;-68
2023/01/28 01:46:18;;;;;;;;;;;3.10;99.90;;;;;;5057036;28;19982;-67
2023/01/28 01:48:43;;;;;;;;;;;3.10;99.90;;;;;;5055286;28;20289;-68
2023/01/28 01:51:11;;;;;;;;;;;3.10;99.90;;;;;;5055385;28;19936;-67
2023/01/28 01:53:39;;;;;;;;;;;3.20;99.90;;;;;;5055710;28;20000;-67
2023/01/28 01:56:07;;;;;;;;;;;3.20;99.90;;;;;;5055222;28;19916;-68
2023/01/28 01:58:36;;;;;;;;;;;3.10;99.90;;;;;;5055485;28;19908;-69
2023/01/28 02:01:01;;;;;;;;;;;3.10;99.90;;;;;;5054031;28;19952;-69
2023/01/28 02:03:30;;;;;;;;;;;3.20;99.90;;;;;;5055175;28;19909;-68
2023/01/28 02:05:55;;;;;;;;;;;3.20;99.90;;;;;;5053986;28;19944;-68
2023/01/28 02:08:21;;;;;;;;;;;3.20;99.90;;;;;;5055076;28;19962;-67
2023/01/28 02:10:48;;;;;;;;;;;3.20;99.90;;;;;;5055109;28;19920;-68
2023/01/28 02:13:14;;;;;;;;;;;3.20;99.90;;;;;;5058594;28;19915;-68
2023/01/28 02:15:41;;;;;;;;;;;3.10;99.90;;;;;;5057525;28;19916;-68
2023/01/28 02:18:06;;;;;;;;;;;3.10;99.90;;;;;;5057071;28;20289;-68
2023/01/28 02:20:55;;;;;;;;;;;3.20;99.90;;;;;;5055229;28;19909;-68
2023/01/28 02:23:30;;;;;;;;;;;3.20;99.90;;;;;;5047846;28;20289;-68
2023/01/28 02:26:14;;;;;;;;;;;3.20;99.90;;;;;;5055312;28;19909;-68
2023/01/28 02:28:42;;;;;;;;;;;3.20;99.90;;;;;;5055183;28;19916;-67
2023/01/28 02:31:19;;;;;;;;;;;3.30;99.90;;;;;;5053657;28;20325;-68
2023/01/28 02:33:55;;;;;;;;;;;3.20;99.90;;;;;;5057609;28;20003;-68
2023/01/28 02:36:21;;;;;;;;;;;3.20;99.90;;;;;;5057952;28;19908;-67
2023/01/28 02:38:48;;;;;;;;;;;3.20;99.90;;;;;;5053806;28;19913;-68
2023/01/28 02:41:35;;;;;;;;;;;3.20;99.90;;;;;;5054729;28;19923;-68
2023/01/28 02:44:01;;;;;;;;;;;3.20;99.90;;;;;;5055321;28;19928;-68
2023/01/28 02:49:18;;;;;;;;;;;3.10;99.90;;;;;;5058854;28;20000;-68
2023/01/28 02:51:50;;;;;;;;;;;3.20;99.90;;;;;;5087636;28;19935;-67
2023/01/28 02:54:34;;;;;;;;;;;3.10;99.90;;;;;;5054425;28;19915;-68
2023/01/28 02:57:07;;;;;;;;;;;3.20;99.90;;;;;;5086593;28;19956;-68
2023/01/28 02:59:53;;;;;;;;;;;3.20;99.90;;;;;;5054484;28;19909;-68
2023/01/28 03:02:22;;;;;;;;;;;3.20;99.90;;;;;;5023085;28;20055;-67
2023/01/28 03:04:56;;;;;;;;;;;3.20;99.90;;;;;;5054327;28;19909;-68
2023/01/28 03:07:24;;;;;;;;;;;3.20;99.90;;;;;;5053977;28;20362;-67
2023/01/28 03:09:51;;;;;;;;;;;3.20;99.90;;;;;;5054174;28;20357;-68
2023/01/28 03:37:28;;;;;;;;;;;3.10;99.90;;;;;;5054084;28;19937;-68
2023/01/28 03:39:56;;;;;;;;;;;3.10;99.90;;;;;;5052201;28;20046;-69
2023/01/28 03:42:22;;;;;;;;;;;3.10;99.90;;;;;;5054163;28;20353;-69
2023/01/28 03:44:51;;;;;;;;;;;3.10;99.90;;;;;;5052427;28;19940;-69
2023/01/28 03:47:18;;;;;;;;;;;3.10;99.90;;;;;;5055599;28;20332;-69
2023/01/28 03:49:44;;;;;;;;;;;3.00;99.90;;;;;;5055945;28;19956;-69
2023/01/28 03:52:10;;;;;;;;;;;3.00;99.90;;;;;;5053653;28;20330;-69
2023/01/28 03:54:36;;;;;;;;;;;3.00;99.90;;;;;;5051608;28;19909;-68
2023/01/28 03:57:02;;;;;;;;;;;3.10;99.90;;;;;;5053662;28;19909;-68
2023/01/28 03:59:27;;;;;;;;;;;3.20;99.90;;;;;;5052498;28;20281;-68
2023/01/28 04:01:54;;;;;;;;;;;3.10;99.90;;;;;;5054216;28;19916;-68
2023/01/28 04:04:23;;;;;;;;;;;3.20;99.90;;;;;;5058367;28;19909;-69
2023/01/28 04:06:52;;;;;;;;;;;3.20;99.90;;;;;;5061814;28;20357;-70
2023/01/28 04:09:19;;;;;;;;;;;3.10;99.90;;;;;;5062323;28;19916;-69
2023/01/28 04:11:44;;;;;;;;;;;3.20;99.90;;;;;;5059688;28;20263;-69
2023/01/28 04:14:09;;;;;;;;;;;3.10;99.90;;;;;;5063438;28;19931;-70
2023/01/28 04:16:35;;;;;;;;;;;3.20;99.90;;;;;;5064390;28;19909;-69
2023/01/28 04:19:00;;;;;;;;;;;3.20;99.90;;;;;;5067405;28;19909;-69
2023/01/28 04:21:26;;;;;;;;;;;3.20;99.90;;;;;;5063513;28;19913;-70
2023/01/28 04:23:51;;;;;;;;;;;3.10;99.90;;;;;;5061321;28;19909;-70
2023/01/28 04:26:17;;;;;;;;;;;3.10;99.90;;;;;;5056273;28;19912;-69
2023/01/28 04:28:42;;;;;;;;;;;3.10;99.90;;;;;;5057530;28;19939;-69
2023/01/28 04:31:08;;;;;;;;;;;3.10;99.90;;;;;;5056086;28;20015;-69
2023/01/28 04:33:33;;;;;;;;;;;3.10;99.90;;;;;;5055971;28;20358;-68
2023/01/28 04:35:59;;;;;;;;;;;3.10;99.90;;;;;;5056982;28;19909;-69
2023/01/28 04:38:24;;;;;;;;;;;3.10;99.90;;;;;;5055605;28;19913;-68
2023/01/28 04:40:50;;;;;;;;;;;3.10;99.90;;;;;;5056888;28;19917;-69
2023/01/28 04:43:15;;;;;;;;;;;3.20;99.90;;;;;;5057168;28;19953;-68
2023/01/28 04:45:41;;;;;;;;;;;3.20;99.90;;;;;;5057344;28;20000;-68
2023/01/28 04:48:06;;;;;;;;;;;3.20;99.90;;;;;;5057455;28;19910;-68
2023/01/28 04:50:32;;;;;;;;;;;3.20;99.90;;;;;;5057263;28;19916;-69
2023/01/28 04:52:57;;;;;;;;;;;3.20;99.90;;;;;;5056766;28;19909;-68
2023/01/28 04:55:23;;;;;;;;;;;3.30;99.90;;;;;;5058317;28;20393;-69
2023/01/28 04:57:48;;;;;;;;;;;3.30;99.90;;;;;;5057627;28;19909;-70
2023/01/28 05:00:14;;;;;;;;;;;3.30;99.90;;;;;;5061269;28;19920;-69
2023/01/28 05:02:39;;;;;;;;;;;3.30;99.90;;;;;;5060367;28;19960;-69
2023/01/28 05:05:07;;;;;;;;;;;3.30;99.90;;;;;;5055662;28;19909;-68
2023/01/28 05:07:33;;;;;;;;;;;3.40;99.90;;;;;;5056644;28;19917;-70
2023/01/28 05:09:59;;;;;;;;;;;3.40;99.90;;;;;;5072086;28;19917;-69
2023/01/28 05:12:24;;;;;;;;;;;3.40;99.90;;;;;;5051499;28;19917;-69
2023/01/28 05:14:50;;;;;;;;;;;3.40;99.90;;;;;;5050200;28;20370;-69
2023/01/28 05:17:15;;;;;;;;;;;3.40;99.90;;;;;;5055199;28;19909;-69
2023/01/28 05:19:40;;;;;;;;;;;3.30;99.90;;;;;;5056725;28;19909;-69
2023/01/28 05:22:06;;;;;;;;;;;3.30;99.90;;;;;;5057836;28;19935;-69
2023/01/28 05:24:31;;;;;;;;;;;3.30;99.90;;;;;;5057266;28;19909;-69
2023/01/28 05:26:57;;;;;;;;;;;3.20;99.90;;;;;;5056269;28;20007;-69
2023/01/28 05:29:22;;;;;;;;;;;3.20;99.90;;;;;;5056304;28;20374;-69
2023/01/28 05:31:48;;;;;;;;;;;3.10;99.90;;;;;;5056442;28;19909;-68
2023/01/28 05:34:13;;;;;;;;;;;3.10;99.90;;;;;;5052931;28;19919;-69
2023/01/28 05:36:40;;;;;;;;;;;3.10;99.90;;;;;;5035980;28;19909;-69
2023/01/28 05:39:06;;;;;;;;;;;3.00;99.90;;;;;;5036682;28;19952;-69
2023/01/28 05:41:32;;;;;;;;;;;3.00;99.90;;;;;;5055542;28;19916;-68
2023/01/28 05:43:57;;;;;;;;;;;3.10;99.90;;;;;;5055779;28;20314;-69
2023/01/28 05:46:24;;;;;;;;;;;3.10;99.90;;;;;;5054664;28;19909;-68
2023/01/28 05:48:50;;;;;;;;;;;3.10;99.90;;;;;;5055768;28;19916;-69
2023/01/28 05:51:15;;;;;;;;;;;3.10;99.90;;;;;;5055602;28;19909;-68
2023/01/28 05:53:41;;;;;;;;;;;3.10;99.90;;;;;;5055665;28;19980;-68
2023/01/28 05:56:06;;;;;;;;;;;3.10;99.90;;;;;;5056852;28;19909;-69
2023/01/28 05:58:32;;;;;;;;;;;3.10;99.90;;;;;;5056839;28;19930;-68
2023/01/28 06:00:57;;;;;;;;;;;3.20;99.90;;;;;;5054647;28;19916;-69
2023/01/28 06:03:23;;;;;;;;;;;3.10;99.90;;;;;;5055736;28;19909;-69
2023/01/28 06:05:48;;;;;;;;;;;3.10;99.90;;;;;;5055063;28;19921;-69
2023/01/28 06:08:14;;;;;;;;;;;3.00;99.90;;;;;;5055297;28;19919;-68
2023/01/28 06:10:39;;;;;;;;;;;2.90;99.90;;;;;;5055297;28;19912;-69
2023/01/28 06:13:05;;;;;;;;;;;2.90;99.90;;;;;;5058623;28;20387;-69
2023/01/28 06:15:30;;;;;;;;;;;2.90;99.90;;;;;;5062681;28;19915;-68
2023/01/28 06:17:56;;;;;;;;;;;2.90;99.90;;;;;;5062987;28;19959;-69
2023/01/28 06:20:21;;;;;;;;;;;2.90;99.90;;;;;;5061533;28;19978;-69
2023/01/28 06:22:49;;;;;;;;;;;2.90;99.90;;;;;;5055168;28;19916;-68
2023/01/28 06:25:14;;;;;;;;;;;2.90;99.90;;;;;;5060930;28;20301;-69
2023/01/28 06:27:40;;;;;;;;;;;2.90;99.90;;;;;;5055170;28;19909;-69
2023/01/28 06:30:05;;;;;;;;;;;2.90;99.90;;;;;;5055099;28;20005;-70
2023/01/28 06:32:38;;;;;;;;;;;2.90;99.90;;;;;;5053725;28;19912;-69
2023/01/28 06:35:04;;;;;;;;;;;2.90;99.90;;;;;;5054837;28;19916;-69
2023/01/28 06:37:29;;;;;;;;;;;2.90;99.90;;;;;;5054779;28;19908;-69
2023/01/28 06:39:55;;;;;;;;;;;2.90;99.90;;;;;;5054841;28;19913;-70
2023/01/28 06:42:20;;;;;;;;;;;3.00;99.90;;;;;;5048441;28;19913;-69
2023/01/28 06:44:46;;;;;;;;;;;3.00;99.90;;;;;;5035032;28;19909;-69
2023/01/28 06:47:13;;;;;;;;;;;3.00;99.90;;;;;;5035066;28;19909;-69
2023/01/28 06:49:39;;;;;;;;;;;3.00;99.90;;;;;;5050756;28;19917;-68
2023/01/28 06:52:04;;;;;;;;;;;2.90;99.90;;;;;;5054409;28;19917;-68
2023/01/28 06:54:30;;;;;;;;;;;3.00;99.90;;;;;;5048663;28;19909;-68
2023/01/28 06:56:55;;;;;;;;;;;3.00;99.90;;;;;;5050736;28;19913;-69
2023/01/28 06:59:20;;;;;;;;;;;2.90;99.90;;;;;;5035848;28;19909;-69
2023/01/28 07:01:46;;;;;;;;;;;2.90;99.90;;;;;;5035296;28;19917;-69
2023/01/28 07:04:11;;;;;;;;;;;2.90;99.90;;;;;;5049262;28;19913;-68
2023/01/28 07:06:37;;;;;;;;;;;2.90;99.90;;;;;;5034775;28;19909;-68
2023/01/28 07:09:02;;;;;;;;;;;2.90;99.90;;;;;;5036691;28;19921;-68
2023/01/28 07:11:28;;;;;;;;;;;2.90;99.90;;;;;;5038451;28;19956;-69
2023/01/28 07:13:53;;;;;;;;;;;2.90;99.90;;;;;;5033516;28;19916;-69
2023/01/28 07:16:19;;;;;;;;;;;3.00;99.90;;;;;;5052035;28;19909;-69
2023/01/28 07:18:44;;;;;;;;;;;3.00;99.90;;;;;;5054707;28;19916;-69
2023/01/28 07:21:10;;;;;;;;;;;2.90;99.90;;;;;;5054572;28;19912;-70
2023/01/28 07:23:35;;;;;;;;;;;3.00;99.90;;;;;;5053941;28;19973;-70
2023/01/28 07:26:01;;;;;;;;;;;3.00;99.90;;;;;;5055666;28;19909;-69
2023/01/28 07:28:27;;;;;;;;;;;3.00;99.90;;;;;;5056405;28;19909;-70
2023/01/28 07:30:52;;;;;;;;;;;3.00;99.90;;;;;;5054411;28;20286;-69
2023/01/28 07:33:18;;;;;;;;;;;3.00;99.90;;;;;;5054316;28;19909;-70
2023/01/28 07:35:44;;;;;;;;;;;3.00;99.90;;;;;;5052727;28;19909;-68
2023/01/28 07:38:09;;;;;;;;;;;2.90;99.90;;;;;;5053956;28;20325;-69
2023/01/28 07:40:35;;;;;;;;;;;3.00;99.90;;;;;;5047195;28;19917;-69
2023/01/28 07:43:00;;;;;;;;;;;3.00;99.90;;;;;;5053012;28;19908;-69
2023/01/28 07:45:29;;;;;;;;;;;3.00;99.90;;;;;;5052905;28;19908;-70
2023/01/28 07:47:58;;;;;;;;;;;3.00;99.90;;;;;;5051894;28;19943;-70
2023/01/28 07:50:24;;;;;;;;;;;3.00;99.90;;;;;;5052515;28;19909;-69
2023/01/28 07:52:50;;;;;;;;;;;3.00;99.90;;;;;;5053546;28;19954;-69
2023/01/28 07:55:16;;;;;;;;;;;3.00;99.90;;;;;;5053922;28;20281;-69
2023/01/28 07:57:51;;;;;;;;;;;3.10;99.90;;;;;;5052712;28;19916;-69
2023/01/28 08:00:17;;;;;;;;;;;3.10;99.90;;;;;;5052313;28;19916;-69
2023/01/28 08:02:46;;;;;;;;;;;3.10;99.90;;;;;;5052199;28;19913;-68
2023/01/28 08:05:14;;;;;;;;;;;3.20;99.90;;;;;;5052378;28;19999;-69
2023/01/28 08:07:39;;;;;;;;;;;3.20;99.90;;;;;;5053428;28;19909;-69
2023/01/28 08:10:05;;;;;;;;;;;3.10;99.90;;;;;;5052342;28;19975;-69
2023/01/28 08:12:30;;;;;;;;;;;3.00;99.90;;;;;;5053528;28;19959;-69
2023/01/28 08:14:56;;;;;;;;;;;3.00;99.90;;;;;;5053716;28;20374;-69
2023/01/28 08:17:21;;;;;;;;;;;3.00;99.90;;;;;;5052599;28;20267;-70
2023/01/28 08:19:47;;;;;;;;;;;3.00;99.90;;;;;;5053918;28;20277;-68
2023/01/28 08:22:12;;;;;;;;;;;3.00;99.90;;;;;;5053540;28;19966;-69
2023/01/28 08:24:37;;;;;;;;;;;3.00;99.90;;;;;;5053618;28;19966;-69
2023/01/28 08:27:06;;;;;;;;;;;3.10;99.90;;;;;;5054433;28;19948;-69
2023/01/28 08:29:32;;;;;;;;;;;3.00;99.90;;;;;;5054625;28;19909;-69
2023/01/28 08:31:57;;;;;;;;;;;3.00;99.90;;;;;;5054375;28;19992;-70
2023/01/28 08:34:23;;;;;;;;;;;3.00;99.90;;;;;;5050940;28;19909;-68
2023/01/28 08:36:48;;;;;;;;;;;3.00;99.90;;;;;;5061438;28;19920;-69
2023/01/28 08:39:14;;;;;;;;;;;3.10;99.90;;;;;;5040756;28;19913;-68
2023/01/28 08:41:39;;;;;;;;;;;3.10;99.90;;;;;;5040283;28;19917;-68
2023/01/28 08:44:04;;;;;;;;;;;3.10;99.90;;;;;;5050304;28;19918;-69
2023/01/28 08:46:30;;;;;;;;;;;3.10;99.90;;;;;;5056462;28;19916;-69
2023/01/28 08:48:55;;;;;;;;;;;3.10;99.90;;;;;;5041285;28;19913;-67
2023/01/28 08:51:21;;;;;;;;;;;3.10;99.90;;;;;;5041210;28;19917;-69
2023/01/28 08:53:46;;;;;;;;;;;3.10;99.90;;;;;;5058734;28;19913;-69
2023/01/28 08:56:13;;;;;;;;;;;3.20;99.90;;;;;;5060407;28;19913;-69
2023/01/28 08:58:39;;;;;;;;;;;3.30;99.90;;;;;;5043454;28;19909;-70
2023/01/28 09:01:05;;;;;;;;;;;3.30;99.90;;;;;;5047321;28;20297;-69
2023/01/28 09:03:31;;;;;;;;;;;3.30;99.90;;;;;;5066250;28;20008;-70
2023/01/28 09:06:01;;;;;;;;;;;3.30;99.90;;;;;;5070633;28;19908;-69
2023/01/28 09:08:26;;;;;;;;;;;3.30;99.90;;;;;;5068414;28;19916;-69
2023/01/28 09:10:55;;;;;;;;;;;3.30;99.90;;;;;;5061461;28;19911;-70
2023/01/28 09:13:21;;;;;;;;;;;3.30;99.90;;;;;;5057703;28;19916;-73
2023/01/28 09:15:47;;;;;;;;;;;3.40;99.90;;;;;;5057097;28;20273;-72
2023/01/28 09:18:12;;;;;;;;;;;3.30;99.90;;;;;;5058326;28;19915;-74
2023/01/28 09:20:38;;;;;;;;;;;3.30;99.90;;;;;;5057394;28;19948;-68
2023/01/28 09:23:04;;;;;;;;;;;3.30;99.90;;;;;;5056902;28;19912;-70
2023/01/28 09:25:29;;;;;;;;;;;3.30;99.90;;;;;;5057589;28;19909;-66
2023/01/28 09:27:56;;;;;;;;;;;3.40;99.90;;;;;;5056891;28;19913;-66
2023/01/28 09:30:21;;;;;;;;;;;3.30;99.90;;;;;;5056831;28;20316;-67
2023/01/28 09:32:50;;;;;;;;;;;3.40;99.90;;;;;;5056230;28;20007;-67
2023/01/28 09:35:16;;;;;;;;;;;3.40;99.90;;;;;;5057210;28;19910;-67
2023/01/28 09:37:42;;;;;;;;;;;3.50;99.90;;;;;;5057487;28;19909;-66
2023/01/28 09:40:11;;;;;;;;;;;3.40;99.90;;;;;;5055905;28;19936;-64
2023/01/28 09:42:48;;;;;;;;;;;3.40;99.90;;;;;;5057541;28;19913;-66
2023/01/28 09:45:15;;;;;;;;;;;3.40;99.90;;;;;;5057232;28;19993;-65
2023/01/28 09:47:47;;;;;;;;;;;3.40;99.90;;;;;;5059278;28;19915;-65
2023/01/28 09:50:32;;;;;;;;;;;3.40;99.90;;;;;;5058695;28;19912;-66
2023/01/28 09:53:04;;;;;;;;;;;3.50;99.90;;;;;;5054955;28;20374;-65
2023/01/28 09:55:43;;;;;;;;;;;3.50;99.90;;;;;;5055818;28;19932;-66
2023/01/28 09:58:14;;;;;;;;;;;3.50;99.90;;;;;;5056906;28;19909;-70
2023/01/28 10:01:01;;;;;;;;;;;3.50;99.90;;;;;;5056167;28;19916;-72
2023/01/28 10:03:27;;;;;;;;;;;3.50;99.90;;;;;;5054361;28;19931;-68
2023/01/28 10:06:04;;;;;;;;;;;3.50;99.90;;;;;;5055941;28;20361;-69
2023/01/28 10:08:49;;;;;;;;;;;3.50;99.90;;;;;;5053329;28;19912;-70
2023/01/28 10:11:32;;;;;;;;;;;3.50;99.90;;;;;;5035013;28;20345;-69
2023/01/28 10:14:17;;;;;;;;;;;3.60;99.90;;;;;;5035349;28;19916;-67
2023/01/28 10:16:51;;;;;;;;;;;3.70;99.90;;;;;;5035625;28;19909;-67
2023/01/28 10:19:36;;;;;;;;;;;3.80;99.90;;;;;;5035707;28;20324;-66
2023/01/28 10:22:06;;;;;;;;;;;3.90;99.90;;;;;;5035644;28;19980;-67
2023/01/28 10:24:32;;;;;;;;;;;3.90;99.90;;;;;;5036668;28;20002;-65
2023/01/28 10:26:59;;;;;;;;;;;4.00;99.90;;;;;;5044238;28;21301;-66
2023/01/28 10:29:28;;;;;;;;;;;3.90;99.90;;;;;;5051005;28;20008;-66
2023/01/28 10:31:55;;;;;;;;;;;4.00;99.90;;;;;;5064395;28;20281;-66
2023/01/28 10:34:21;;;;;;;;;;;4.00;99.90;;;;;;5055381;28;20301;-67
2023/01/28 10:36:47;;;;;;;;;;;3.90;99.90;;;;;;5048519;28;20261;-67
2023/01/28 10:39:14;;;;;;;;;;;3.90;99.90;;;;;;5054920;28;19909;-68
2023/01/28 10:41:39;;;;;;;;;;;3.80;99.90;;;;;;5054505;28;20030;-68
2023/01/28 10:44:08;;;;;;;;;;;3.80;99.90;;;;;;5052970;28;19917;-66
2023/01/28 10:46:35;;;;;;;;;;;3.80;99.90;;;;;;5049405;28;19909;-66
2023/01/28 10:49:17;;;;;;;;;;;3.80;99.90;;;;;;5054784;28;19952;-69
2023/01/28 10:51:43;;;;;;;;;;;3.80;99.90;;;;;;5054785;28;19931;-69
2023/01/28 10:54:19;;;;;;;;;;;3.80;99.90;;;;;;5057524;28;19909;-66
2023/01/28 10:56:46;;;;;;;;;;;3.80;99.90;;;;;;5064115;28;20297;-68
2023/01/28 10:59:28;;;;;;;;;;;3.90;99.90;;;;;;5064872;28;19908;-69
2023/01/28 11:01:56;;;;;;;;;;;3.90;99.90;;;;;;5061942;28;20380;-68
2023/01/28 11:04:29;;;;;;;;;;;3.80;99.90;;;;;;5057408;28;20433;-69
2023/01/28 11:07:02;;;;;;;;;;;3.90;99.90;;;;;;5057779;28;20341;-69
2023/01/28 11:09:27;;;;;;;;;;;4.00;99.90;;;;;;5060935;28;19928;-68
2023/01/28 11:11:53;;;;;;;;;;;4.00;99.90;;;;;;5057336;28;19956;-68
2023/01/28 11:14:23;;;;;;;;;;;4.00;99.90;;;;;;5058226;28;19913;-69
2023/01/28 11:16:49;;;;;;;;;;;4.00;99.90;;;;;;5057896;28;19920;-70
2023/01/28 11:19:17;;;;;;;;;;;4.00;99.90;;;;;;5049929;28;19919;-69
2023/01/28 11:21:47;;;;;;;;;;;4.00;99.90;;;;;;5056415;28;19923;-69
2023/01/28 11:24:15;;;;;;;;;;;4.10;99.90;;;;;;5056098;28;19916;-69
2023/01/28 11:26:48;;;;;;;;;;;4.00;99.90;;;;;;5054856;28;19913;-68
2023/01/28 11:29:21;;;;;;;;;;;4.00;99.90;;;;;;5047131;28;19919;-69
2023/01/28 11:31:47;;;;;;;;;;;4.00;99.90;;;;;;5056371;28;19956;-67
2023/01/28 11:34:15;;;;;;;;;;;4.00;99.90;;;;;;5056355;28;19932;-68
2023/01/28 11:36:48;;;;;;;;;;;3.90;99.90;;;;;;5055666;28;20442;-69
2023/01/28 11:39:24;;;;;;;;;;;3.90;99.90;;;;;;5054446;28;20003;-68
2023/01/28 11:41:50;;;;;;;;;;;3.90;99.90;;;;;;5053751;28;19917;-65
2023/01/28 11:44:21;;;;;;;;;;;4.00;99.90;;;;;;5052979;28;19913;-68
2023/01/28 11:47:06;;;;;;;;;;;4.00;99.90;;;;;;5053123;28;20431;-70
2023/01/28 11:49:42;;;;;;;;;;;4.00;99.90;;;;;;5054427;28;20004;-70
2023/01/28 11:52:17;;;;;;;;;;;4.00;99.90;;;;;;5054445;28;19908;-69
2023/01/28 11:54:45;;;;;;;;;;;3.90;99.90;;;;;;5053093;28;19953;-69
2023/01/28 11:57:18;;;;;;;;;;;3.90;99.90;;;;;;5053627;28;19908;-71
2023/01/28 11:59:43;;;;;;;;;;;3.90;99.90;;;;;;5054318;28;19908;-70
2023/01/28 12:02:20;;;;;;;;;;;4.00;99.90;;;;;;5053079;28;20384;-70
2023/01/28 12:04:58;;;;;;;;;;;4.00;99.90;;;;;;5051040;28;19972;-71
2023/01/28 12:07:30;;;;;;;;;;;4.10;99.90;;;;;;5052563;28;19909;-70
2023/01/28 12:09:55;;;;;;;;;;;4.10;99.90;;;;;;5052360;28;20056;-71
2023/01/28 12:12:30;;;;;;;;;;;4.00;99.90;;;;;;5053469;28;19973;-72
2023/01/28 12:15:11;;;;;;;;;;;4.00;99.90;;;;;;5054366;28;19913;-71
2023/01/28 12:17:37;;;;;;;;;;;4.00;99.90;;;;;;5058925;28;20366;-71
2023/01/28 12:20:14;;;;;;;;;;;4.10;99.90;;;;;;5057677;28;20334;-67
2023/01/28 12:22:50;;;;;;;;;;;4.10;99.90;;;;;;5055941;28;19975;-67
2023/01/28 12:25:15;;;;;;;;;;;4.20;99.90;;;;;;5056851;28;19956;-66
2023/01/28 12:27:58;;;;;;;;;;;4.30;99.90;;;;;;5058353;28;19909;-67
2023/01/28 12:30:23;;;;;;;;;;;4.20;99.90;;;;;;5055002;28;19916;-66
2023/01/28 12:33:11;;;;;;;;;;;4.20;99.90;;;;;;5053368;28;19916;-66
2023/01/28 12:35:45;;;;;;;;;;;4.20;99.90;;;;;;5056142;28;20375;-67
2023/01/28 12:38:17;;;;;;;;;;;4.30;99.90;;;;;;5057386;28;19908;-66
2023/01/28 12:40:55;;;;;;;;;;;4.20;99.90;;;;;;5057086;28;19959;-67
2023/01/28 12:43:24;;;;;;;;;;;4.10;99.90;;;;;;5057355;28;19912;-66
2023/01/28 12:45:58;;;;;;;;;;;4.20;99.90;;;;;;5057044;28;19932;-68
2023/01/28 12:48:27;;;;;;;;;;;4.10;99.90;;;;;;5055155;28;19941;-67
2023/01/28 12:50:56;;;;;;;;;;;4.00;99.90;;;;;;5056413;28;19995;-71
2023/01/28 12:53:32;;;;;;;;;;;4.00;99.90;;;;;;5055384;28;19931;-69
2023/01/28 12:56:02;;;;;;;;;;;4.00;99.90;;;;;;5060968;28;19909;-73
2023/01/28 12:58:42;;;;;;;;;;;4.10;99.90;;;;;;5061236;28;19913;-69
2023/01/28 13:01:11;;;;;;;;;;;4.20;99.90;;;;;;5058910;28;19917;-67
2023/01/28 13:03:42;;;;;;;;;;;4.10;99.90;;;;;;5044780;28;19916;-71
2023/01/28 13:06:13;;;;;;;;;;;4.10;99.90;;;;;;5039413;28;19909;-71
2023/01/28 13:08:39;;;;;;;;;;;4.20;99.90;;;;;;5059423;28;19917;-73
2023/01/28 13:11:06;;;;;;;;;;;4.30;99.90;;;;;;5058072;28;19913;-70
2023/01/28 13:13:38;;;;;;;;;;;4.30;99.90;;;;;;5055969;28;19909;-70
2023/01/28 13:16:07;;;;;;;;;;;4.20;99.90;;;;;;5040982;28;19913;-68
2023/01/28 13:18:38;;;;;;;;;;;4.40;99.90;;;;;;5040178;28;19913;-69
2023/01/28 13:21:04;;;;;;;;;;;4.50;99.90;;;;;;5040278;28;19909;-69
2023/01/28 13:23:30;;;;;;;;;;;4.50;99.90;;;;;;5040205;28;19909;-69
2023/01/28 13:26:07;;;;;;;;;;;4.50;99.90;;;;;;5056715;28;20038;-68
2023/01/28 13:28:33;;;;;;;;;;;4.50;99.90;;;;;;5060167;28;20049;-68
2023/01/28 13:31:06;;;;;;;;;;;4.50;99.90;;;;;;5058811;28;19948;-69
2023/01/28 13:33:33;;;;;;;;;;;4.50;99.90;;;;;;5059131;28;19909;-67
2023/01/28 13:36:01;;;;;;;;;;;4.50;99.90;;;;;;5055733;28;19909;-69
2023/01/28 13:38:28;;;;;;;;;;;4.50;99.90;;;;;;5057814;28;19909;-68
2023/01/28 13:41:05;;;;;;;;;;;4.50;99.90;;;;;;5057196;28;20336;-69
2023/01/28 13:43:33;;;;;;;;;;;4.40;99.90;;;;;;5056998;28;19916;-68
2023/01/28 13:46:00;;;;;;;;;;;4.50;99.90;;;;;;5057557;28;19940;-68
2023/01/28 13:48:25;;;;;;;;;;;4.50;99.90;;;;;;5057530;28;19952;-68
2023/01/28 13:50:52;;;;;;;;;;;4.40;99.90;;;;;;5044131;28;19920;-69
2023/01/28 13:53:24;;;;;;;;;;;4.40;99.90;;;;;;5043122;28;20368;-70
2023/01/28 13:55:51;;;;;;;;;;;4.30;99.90;;;;;;5051484;28;20007;-69
2023/01/28 13:58:30;;;;;;;;;;;4.20;99.90;;;;;;5055636;28;20003;-68
2023/01/28 14:00:56;;;;;;;;;;;4.20;99.90;;;;;;5049984;28;19928;-70
2023/01/28 14:03:38;;;;;;;;;;;4.20;99.90;;;;;;5047942;28;19913;-70
2023/01/28 14:06:12;;;;;;;;;;;4.10;99.90;;;;;;5041783;28;20427;-68
2023/01/28 14:08:56;;;;;;;;;;;4.10;99.90;;;;;;5035472;28;19909;-69
2023/01/28 14:11:40;;;;;;;;;;;4.00;99.90;;;;;;5033885;28;19957;-69
2023/01/28 14:14:21;;;;;;;;;;;4.00;99.90;;;;;;5034426;28;19948;-68
2023/01/28 14:17:09;;;;;;;;;;;4.00;99.90;;;;;;5035635;28;19909;-68
2023/01/28 14:19:36;;;;;;;;;;;4.10;99.90;;;;;;5007033;28;19935;-70
2023/01/28 14:22:16;;;;;;;;;;;4.20;99.90;;;;;;5034886;28;19917;-68
2023/01/28 14:24:41;;;;;;;;;;;4.10;99.90;;;;;;5040558;28;19916;-68
2023/01/28 14:27:07;;;;;;;;;;;4.10;99.90;;;;;;5053631;28;20273;-71
2023/01/28 14:29:49;;;;;;;;;;;4.10;99.90;;;;;;5053431;28;19909;-68
2023/01/28 14:32:19;;;;;;;;;;;4.10;99.90;;;;;;5054892;28;19952;-69
2023/01/28 14:34:45;;;;;;;;;;;4.20;99.90;;;;;;5041652;28;19916;-72
2023/01/28 14:37:12;;;;;;;;;;;4.20;99.90;;;;;;5032989;28;20302;-71
2023/01/28 14:39:50;;;;;;;;;;;4.20;99.90;;;;;;5033308;28;19909;-71
2023/01/28 14:42:34;;;;;;;;;;;4.30;99.90;;;;;;5041677;28;20278;-71
2023/01/28 14:45:00;;;;;;;;;;;4.20;99.90;;;;;;5053438;28;19932;-71
2023/01/28 14:47:28;;;;;;;;;;;4.20;99.90;;;;;;5054642;28;19908;-71
2023/01/28 14:49:53;;;;;;;;;;;4.20;99.90;;;;;;5054916;28;19951;-71
2023/01/28 14:52:25;;;;;;;;;;;4.20;99.90;;;;;;5054027;28;20008;-72
2023/01/28 14:54:55;;;;;;;;;;;4.30;99.90;;;;;;5054820;28;19951;-68
2023/01/28 14:57:36;;;;;;;;;;;4.40;99.90;;;;;;5055709;28;19916;-69
2023/01/28 15:00:01;;;;;;;;;;;4.30;99.90;;;;;;5057755;28;19940;-72
2023/01/28 15:02:28;;;;;;;;;;;4.20;99.90;;;;;;5056619;28;19920;-70
2023/01/28 15:04:54;;;;;;;;;;;4.30;99.90;;;;;;5055733;28;19915;-69
2023/01/28 15:07:24;;;;;;;;;;;4.20;99.90;;;;;;5053229;28;19909;-70